Andesborg — PCLC — position and weather

sailwx.info

Track history (hours):
 
Tides and Currents Weather Stations Pressure Air Temp Water Temp Dewpoint Dewpoint Depression Visibility Wind Speed Wind Dir Waves Ship Positions

Andesborg

Last reported at 2014-Dec-19 22:31 UTC. Time now 2014-Dec-19 23:29 UTC.
Position N 59°55' E 030°15'.

Length 143 m; draft 9.7 m.

Type: Ship. MMSI: 246797000.

Date/timePositionNaut miles runAvg speedWind from/ knotsBaromVisibWave heightAir tempDewpointWater temp
2014-Dec-19 22:31N 59°55' E 030°15'0 0.0
2014-Dec-19 21:23N 59°55' E 030°15'0 0.0
2014-Dec-19 20:33N 59°55' E 030°15'0 0.0
2014-Dec-19 19:34N 59°55' E 030°15'3 2.7
2014-Dec-19 18:33N 59°53' E 030°11'1 0.1
2014-Dec-19 02:22N 59°52' E 030°12'  
2014-Dec-15 05:03N 59°54' E 030°09'10111.3
2014-Dec-14 20:07N 59°59' E 026°48'712.1
2014-Dec-14 19:33N 59°59' E 026°34'6212.4
2014-Dec-14 14:33N 59°44' E 024°34'2512.4
2014-Dec-14 12:32N 59°37' E 023°46'1212.2
2014-Dec-14 11:33N 59°33' E 023°24'34311.8
2014-Dec-13 06:29N 55°40' E 015°34'1111.8
2014-Dec-13 05:33N 55°36' E 015°17'1212.1
2014-Dec-13 04:33N 55°30' E 014°58'1212.4
2014-Dec-13 03:33N 55°24' E 014°39'1312.5
2014-Dec-13 02:33N 55°14' E 014°25'1211.9
2014-Dec-13 01:33N 55°05' E 014°12'1211.8
2014-Dec-13 00:33N 54°59' E 013°54'5612.4
2014-Dec-12 20:04N 54°38' E 012°25'1011.8
2014-Dec-12 19:14N 54°30' E 012°15'1111.2
2014-Dec-12 18:15N 54°25' E 011°58'137 8.7
2014-Dec-12 02:32N 56°42' E 011°49'1010.7
2014-Dec-12 01:33N 56°52' E 011°48'1111.0
2014-Dec-12 00:33N 57°03' E 011°41'1111.0
2014-Dec-11 23:33N 57°13' E 011°34'1111.1
2014-Dec-11 22:33N 57°23' E 011°28'1111.4
2014-Dec-11 21:34N 57°32' E 011°15'1211.6
2014-Dec-11 20:33N 57°40' E 010°58'1211.8
2014-Dec-11 19:33N 57°48' E 010°42'19911.7
2014-Dec-11 02:33N 55°25' E 006°31'1111.3
2014-Dec-11 01:33N 55°15' E 006°24'64 8.8
2014-Dec-10 18:14N 54°19' E 005°29'811.2
2014-Dec-10 17:33N 54°12' E 005°23'1110.7
2014-Dec-10 16:32N 54°01' E 005°20'1111.4
2014-Dec-10 15:33N 53°52' E 005°10'1211.6
2014-Dec-10 14:33N 53°43' E 004°58'1111.2
2014-Dec-10 13:33N 53°34' E 004°47'1010.5
2014-Dec-10 12:33N 53°24' E 004°41'1610.9
2014-Dec-10 11:07N 53°10' E 004°30'611.1
2014-Dec-10 10:33N 53°04' E 004°25'1110.8
2014-Dec-10 09:33N 52°55' E 004°17'1111.0
2014-Dec-10 08:33N 52°45' E 004°07'1211.9
2014-Dec-10 07:33N 52°36' E 003°54'1612.2
2014-Dec-10 06:15N 52°25' E 003°35'2212.9
2014-Dec-10 04:32N 52°09' E 003°10'1313.3
2014-Dec-10 03:32N 51°60' E 002°55'2013.6
2014-Dec-10 02:04N 51°44' E 002°34'713.4
2014-Dec-10 01:33N 51°39' E 002°28'1413.3
2014-Dec-10 00:31N 51°28' E 002°14'1212.6
2014-Dec-09 23:33N 51°17' E 002°06'1211.7
2014-Dec-09 22:33N 51°10' E 001°52'  
Track history (hours):
 
Tides and Currents Weather Stations Pressure Air Temp Water Temp Dewpoint Dewpoint Depression Visibility Wind Speed Wind Dir Waves Ship Positions

Andesborg

Last reported at 2014-Dec-19 22:31 UTC. Time now 2014-Dec-19 23:29 UTC.
Position N 59°55' E 030°15'.

Length 143 m; draft 9.7 m.

Type: Ship. MMSI: 246797000.

Date/timePositionNaut miles runAvg speedWind from/ knotsBaromVisibWave heightAir tempDewpointWater temp
2014-Dec-19 22:31N 59°55' E 030°15'0 0.0
2014-Dec-19 21:23N 59°55' E 030°15'0 0.0
2014-Dec-19 20:33N 59°55' E 030°15'0 0.0
2014-Dec-19 19:34N 59°55' E 030°15'3 2.7
2014-Dec-19 18:33N 59°53' E 030°11'1 0.1
2014-Dec-19 02:22N 59°52' E 030°12'  
2014-Dec-15 05:03N 59°54' E 030°09'10111.3
2014-Dec-14 20:07N 59°59' E 026°48'712.1
2014-Dec-14 19:33N 59°59' E 026°34'6212.4
2014-Dec-14 14:33N 59°44' E 024°34'2512.4
2014-Dec-14 12:32N 59°37' E 023°46'1212.2
2014-Dec-14 11:33N 59°33' E 023°24'34311.8
2014-Dec-13 06:29N 55°40' E 015°34'1111.8
2014-Dec-13 05:33N 55°36' E 015°17'1212.1
2014-Dec-13 04:33N 55°30' E 014°58'1212.4
2014-Dec-13 03:33N 55°24' E 014°39'1312.5
2014-Dec-13 02:33N 55°14' E 014°25'1211.9
2014-Dec-13 01:33N 55°05' E 014°12'1211.8
2014-Dec-13 00:33N 54°59' E 013°54'5612.4
2014-Dec-12 20:04N 54°38' E 012°25'1011.8
2014-Dec-12 19:14N 54°30' E 012°15'1111.2
2014-Dec-12 18:15N 54°25' E 011°58'137 8.7
2014-Dec-12 02:32N 56°42' E 011°49'1010.7
2014-Dec-12 01:33N 56°52' E 011°48'1111.0
2014-Dec-12 00:33N 57°03' E 011°41'1111.0
2014-Dec-11 23:33N 57°13' E 011°34'1111.1
2014-Dec-11 22:33N 57°23' E 011°28'1111.4
2014-Dec-11 21:34N 57°32' E 011°15'1211.6
2014-Dec-11 20:33N 57°40' E 010°58'1211.8
2014-Dec-11 19:33N 57°48' E 010°42'19911.7
2014-Dec-11 02:33N 55°25' E 006°31'1111.3
2014-Dec-11 01:33N 55°15' E 006°24'64 8.8
2014-Dec-10 18:14N 54°19' E 005°29'811.2
2014-Dec-10 17:33N 54°12' E 005°23'1110.7
2014-Dec-10 16:32N 54°01' E 005°20'1111.4
2014-Dec-10 15:33N 53°52' E 005°10'1211.6
2014-Dec-10 14:33N 53°43' E 004°58'1111.2
2014-Dec-10 13:33N 53°34' E 004°47'1010.5
2014-Dec-10 12:33N 53°24' E 004°41'1610.9
2014-Dec-10 11:07N 53°10' E 004°30'611.1
2014-Dec-10 10:33N 53°04' E 004°25'1110.8
2014-Dec-10 09:33N 52°55' E 004°17'1111.0
2014-Dec-10 08:33N 52°45' E 004°07'1211.9
2014-Dec-10 07:33N 52°36' E 003°54'1612.2
2014-Dec-10 06:15N 52°25' E 003°35'2212.9
2014-Dec-10 04:32N 52°09' E 003°10'1313.3
2014-Dec-10 03:32N 51°60' E 002°55'2013.6
2014-Dec-10 02:04N 51°44' E 002°34'713.4
2014-Dec-10 01:33N 51°39' E 002°28'1413.3
2014-Dec-10 00:31N 51°28' E 002°14'1212.6
2014-Dec-09 23:33N 51°17' E 002°06'1211.7
2014-Dec-09 22:33N 51°10' E 001°52'  

Dump ship's entire track history